Weather Data

Pearl Creek Farm: 8878 N Farm Road 75, Walnut Grove MO 65770

<== Previous Day (Wednesday 09 Mar 2011) | Next Day (Friday 11 Mar 2011) ==>

Summary Precipitation Data For Thursday 10 March 2011

ElementValueUnits
Precipitation0"
Notes(none)
SourcePearl Creek Farm

Summary Temperature Data For Thursday 10 March 2011

ElementValueUnits
High Temperature48 oF
Low Temperature30 oF
Average Temperature36 oF
High Humidity85 %
Low Humidity42 %
Average Humidity69 %
SourceSpringfield-Branson National Airport (SGF)

Detail Temperature Data For Thursday 10 March 2011

Date / TimeTemp (F)RH (%)Dew Pt (F)Report Date / TimeSource
2011-03-10 00:52:00 36 79 30.0 2017-12-29 17:00:26.17417 Springfield-Branson National Airport (SGF)
2011-03-10 01:52:00 35 78 29.0 2017-12-29 17:00:26.17417 Springfield-Branson National Airport (SGF)
2011-03-10 02:52:00 34 79 28.0 2017-12-29 17:00:26.17417 Springfield-Branson National Airport (SGF)
2011-03-10 03:52:00 33 82 28.0 2017-12-29 17:00:26.17417 Springfield-Branson National Airport (SGF)
2011-03-10 04:52:00 31 82 26.0 2017-12-29 17:00:26.17417 Springfield-Branson National Airport (SGF)
2011-03-10 05:52:00 31 82 26.0 2017-12-29 17:00:26.17417 Springfield-Branson National Airport (SGF)
2011-03-10 06:52:00 30 85 26.0 2017-12-29 17:00:26.17417 Springfield-Branson National Airport (SGF)
2011-03-10 07:52:00 31 82 26.0 2017-12-29 17:00:26.17417 Springfield-Branson National Airport (SGF)
2011-03-10 08:52:00 31 82 26.0 2017-12-29 17:00:26.17417 Springfield-Branson National Airport (SGF)
2011-03-10 09:52:00 32 79 26.0 2017-12-29 17:00:26.17417 Springfield-Branson National Airport (SGF)
2011-03-10 10:52:00 37 67 27.0 2017-12-29 17:00:26.17417 Springfield-Branson National Airport (SGF)
2011-03-10 21:52:00 30 79 24.0 2017-12-29 17:00:26.17417 Springfield-Branson National Airport (SGF)
2011-03-10 11:52:00 39 62 27.0 2017-12-29 17:00:26.17417 Springfield-Branson National Airport (SGF)
2011-03-10 12:52:00 42 55 27.0 2017-12-29 17:00:26.17417 Springfield-Branson National Airport (SGF)
2011-03-10 13:52:00 47 48 28.0 2017-12-29 17:00:26.17417 Springfield-Branson National Airport (SGF)
2011-03-10 14:52:00 47 44 26.0 2017-12-29 17:00:26.17417 Springfield-Branson National Airport (SGF)
2011-03-10 15:52:00 48 42 26.0 2017-12-29 17:00:26.17417 Springfield-Branson National Airport (SGF)
2011-03-10 16:52:00 47 42 25.0 2017-12-29 17:00:26.17417 Springfield-Branson National Airport (SGF)
2011-03-10 17:52:00 44 51 27.0 2017-12-29 17:00:26.17417 Springfield-Branson National Airport (SGF)
2011-03-10 18:52:00 42 51 25.0 2017-12-29 17:00:26.17417 Springfield-Branson National Airport (SGF)
2011-03-10 19:52:00 34 73 26.0 2017-12-29 17:00:26.17417 Springfield-Branson National Airport (SGF)
2011-03-10 20:52:00 32 75 25.0 2017-12-29 17:00:26.17417 Springfield-Branson National Airport (SGF)
2011-03-10 22:52:00 30 82 25.0 2017-12-29 17:00:26.17417 Springfield-Branson National Airport (SGF)
2011-03-10 23:52:00 31 76 24.0 2017-12-29 17:00:26.17417 Springfield-Branson National Airport (SGF)

A total of 24 rows are displayed.